Time;durP1;ratioP1;P1;durP2;ratioP2;P2;SDS_P1;SDS_P2;PMS_P1;PMS_P2;Temp;Humidity;BMP_temperature;BMP_pressure;BME280_temperature;BME280_humidity;BME280_pressure;Samples;Min_cycle;Max_cycle;Signal;HPM_P1;HPM_P2
2021/11/18 00:00:19;;;;;;;0.00;0.00;;;6.50;99.90;;;;;;5130413;28;20397;-82
2021/11/18 00:02:48;;;;;;;0.10;0.10;;;6.80;99.90;;;;;;5129531;28;20471;-81
2021/11/18 00:05:19;;;;;;;0.10;0.10;;;6.70;99.90;;;;;;5113251;28;20100;-81
2021/11/18 00:07:48;;;;;;;0.10;0.10;;;6.60;99.90;;;;;;5146752;28;20043;-82
2021/11/18 00:10:25;;;;;;;0.13;0.13;;;6.80;99.90;;;;;;5129860;28;20039;-81
2021/11/18 00:12:52;;;;;;;0.10;0.10;;;6.70;99.90;;;;;;5130014;28;20036;-81
2021/11/18 00:15:21;;;;;;;0.10;0.10;;;6.70;99.90;;;;;;5130028;28;20122;-81
2021/11/18 00:17:47;;;;;;;0.10;0.10;;;6.70;99.90;;;;;;5112991;28;20054;-81
2021/11/18 00:20:16;;;;;;;0.08;0.08;;;6.70;99.90;;;;;;5113122;28;20047;-81
2021/11/18 00:22:44;;;;;;;0.10;0.10;;;6.70;99.90;;;;;;5129837;28;20039;-81
2021/11/18 00:25:13;;;;;;;0.10;0.10;;;6.70;99.90;;;;;;5146677;28;20054;-82
2021/11/18 00:27:40;;;;;;;0.10;0.10;;;6.80;99.90;;;;;;5146344;28;20419;-82
2021/11/18 00:30:09;;;;;;;0.10;0.10;;;6.80;99.90;;;;;;5113241;28;20039;-82
2021/11/18 00:32:36;;;;;;;0.10;0.10;;;6.80;99.90;;;;;;5112527;28;20035;-82
2021/11/18 00:35:06;;;;;;;0.10;0.10;;;6.80;99.90;;;;;;5114528;28;20372;-82
2021/11/18 00:37:34;;;;;;;0.00;0.00;;;6.80;99.90;;;;;;5130039;28;20050;-82
2021/11/18 00:40:03;;;;;;;0.00;0.00;;;6.80;99.90;;;;;;5129442;28;20047;-82
2021/11/18 00:42:29;;;;;;;0.10;0.10;;;6.80;99.90;;;;;;5129825;28;20547;-83
2021/11/18 00:44:57;;;;;;;0.10;0.10;;;6.70;99.90;;;;;;5095837;28;20192;-83
2021/11/18 00:47:24;;;;;;;0.10;0.10;;;6.70;99.90;;;;;;5129736;28;20032;-81
2021/11/18 00:49:51;;;;;;;0.10;0.10;;;6.80;99.90;;;;;;5098439;28;20457;-82
2021/11/18 00:52:18;;;;;;;0.10;0.10;;;6.70;99.90;;;;;;5116799;28;20036;-82
2021/11/18 00:54:45;;;;;;;0.10;0.10;;;6.60;99.90;;;;;;5133437;28;20403;-82
2021/11/18 00:57:12;;;;;;;0.10;0.10;;;6.70;99.90;;;;;;5133551;28;20047;-82
2021/11/18 00:59:38;;;;;;;0.10;0.10;;;6.70;99.90;;;;;;5116498;28;20040;-79
2021/11/18 01:02:05;;;;;;;0.10;0.10;;;6.70;99.90;;;;;;5116749;28;20043;-82
2021/11/18 01:04:32;;;;;;;0.10;0.10;;;6.60;99.90;;;;;;5116480;28;20058;-81
2021/11/18 01:06:59;;;;;;;0.10;0.10;;;6.60;99.90;;;;;;5116125;28;20573;-82
2021/11/18 01:09:26;;;;;;;0.32;0.32;;;6.70;99.90;;;;;;5133499;28;20046;-82
2021/11/18 01:11:53;;;;;;;0.10;0.10;;;6.70;99.90;;;;;;5116088;28;20495;-81
2021/11/18 01:14:21;;;;;;;0.10;0.10;;;6.70;99.90;;;;;;5133067;28;20039;-82
2021/11/18 01:16:49;;;;;;;0.52;0.38;;;6.60;99.90;;;;;;5133143;28;20034;-81
2021/11/18 01:19:17;;;;;;;0.10;0.10;;;6.70;99.90;;;;;;5133230;28;20040;-82
2021/11/18 01:21:46;;;;;;;0.10;0.10;;;6.60;99.90;;;;;;5132930;28;20427;-81
2021/11/18 01:24:14;;;;;;;0.10;0.10;;;6.60;99.90;;;;;;5133277;28;20027;-82
2021/11/18 01:26:41;;;;;;;0.10;0.10;;;6.60;99.90;;;;;;5133158;28;20036;-82
2021/11/18 01:29:08;;;;;;;0.10;0.10;;;6.50;99.90;;;;;;5132866;28;20131;-82
2021/11/18 01:31:34;;;;;;;0.10;0.10;;;7.20;99.90;;;;;;5116071;28;20130;-82
2021/11/18 01:34:01;;;;;;;0.00;0.00;;;6.50;99.90;;;;;;5132610;28;20096;-82
2021/11/18 01:36:28;;;;;;;0.10;0.10;;;6.80;99.90;;;;;;5116275;28;20126;-81
2021/11/18 01:38:55;;;;;;;0.10;0.10;;;6.50;99.90;;;;;;5115616;28;20050;-80
2021/11/18 01:41:28;;;;;;;0.10;0.10;;;6.50;99.90;;;;;;5115914;28;20117;-82
2021/11/18 01:44:00;;;;;;;0.10;0.10;;;6.50;99.90;;;;;;5149200;28;20047;-81
2021/11/18 01:46:33;;;;;;;0.10;0.10;;;6.50;99.90;;;;;;5132773;28;20047;-82
2021/11/18 01:49:02;;;;;;;0.10;0.10;;;6.60;99.90;;;;;;5132419;28;20391;-80
2021/11/18 01:51:33;;;;;;;0.10;0.10;;;6.60;99.90;;;;;;5132886;28;20036;-81
2021/11/18 01:54:01;;;;;;;0.10;0.10;;;6.80;99.90;;;;;;5132476;28;20040;-81
2021/11/18 01:56:31;;;;;;;0.10;0.10;;;6.60;99.90;;;;;;5132623;28;20096;-81
2021/11/18 01:59:14;;;;;;;0.10;0.10;;;6.70;99.90;;;;;;5132074;28;20036;-81
2021/11/18 02:01:45;;;;;;;0.10;0.10;;;6.70;99.90;;;;;;5131237;28;20126;-82
2021/11/18 02:04:16;;;;;;;0.00;0.00;;;6.80;99.90;;;;;;5132214;28;20143;-81
2021/11/18 02:06:55;;;;;;;0.10;0.10;;;6.80;99.90;;;;;;5132775;28;20035;-81
2021/11/18 02:09:26;;;;;;;0.10;0.10;;;6.80;99.90;;;;;;5132400;28;20400;-81
2021/11/18 02:12:03;;;;;;;0.08;0.08;;;6.80;99.90;;;;;;5132187;28;20082;-81
2021/11/18 02:14:31;;;;;;;0.10;0.10;;;6.80;99.90;;;;;;5149204;28;20126;-82
2021/11/18 02:17:01;;;;;;;0.10;0.10;;;6.90;99.90;;;;;;5115252;28;20028;-82
2021/11/18 02:19:34;;;;;;;0.10;0.10;;;6.90;99.90;;;;;;5132062;28;20039;-82
2021/11/18 02:22:00;;;;;;;0.10;0.10;;;6.90;99.90;;;;;;5115633;28;20377;-82
2021/11/18 02:24:33;;;;;;;0.10;0.10;;;6.90;99.90;;;;;;5098457;28;20108;-82
2021/11/18 02:27:00;;;;;;;0.10;0.10;;;7.00;99.90;;;;;;5131643;28;20039;-82
2021/11/18 02:29:27;;;;;;;0.10;0.10;;;7.00;99.90;;;;;;5132272;28;20043;-81
2021/11/18 02:31:59;;;;;;;0.00;0.00;;;6.90;99.90;;;;;;5131582;28;20039;-82
2021/11/18 02:34:43;;;;;;;0.03;0.03;;;7.00;99.90;;;;;;5132185;28;20043;-81
2021/11/18 02:37:10;;;;;;;0.10;0.10;;;7.00;99.90;;;;;;5131513;28;20126;-81
2021/11/18 02:39:37;;;;;;;0.10;0.10;;;7.00;99.90;;;;;;5131733;28;20119;-81
2021/11/18 02:42:06;;;;;;;0.10;0.10;;;7.00;99.90;;;;;;5131645;28;20474;-81
2021/11/18 02:44:33;;;;;;;0.10;0.10;;;7.00;99.90;;;;;;5131693;28;20184;-81
2021/11/18 02:47:01;;;;;;;0.10;0.10;;;7.10;99.90;;;;;;5114364;28;20075;-82
2021/11/18 02:49:28;;;;;;;0.10;0.10;;;7.30;99.90;;;;;;5131799;28;20071;-82
2021/11/18 02:51:55;;;;;;;0.10;0.10;;;7.10;99.90;;;;;;5131428;28;20522;-81
2021/11/18 02:54:22;;;;;;;0.10;0.10;;;7.20;99.90;;;;;;5131583;28;20443;-81
2021/11/18 02:56:52;;;;;;;0.10;0.10;;;7.10;99.90;;;;;;5114927;28;20392;-82
2021/11/18 02:59:19;;;;;;;0.08;0.08;;;7.20;99.90;;;;;;5114811;28;20407;-82
2021/11/18 03:01:46;;;;;;;0.10;0.10;;;7.20;99.90;;;;;;5114576;28;20484;-82
2021/11/18 03:04:15;;;;;;;0.10;0.10;;;7.30;99.90;;;;;;5113732;28;20047;-82
2021/11/18 03:06:42;;;;;;;0.10;0.10;;;7.40;99.90;;;;;;5131018;28;20503;-81
2021/11/18 03:09:10;;;;;;;0.10;0.10;;;7.30;99.90;;;;;;5113907;28;20043;-82
2021/11/18 03:11:38;;;;;;;0.10;0.10;;;7.30;99.90;;;;;;5130913;28;20027;-81
2021/11/18 03:14:05;;;;;;;0.10;0.10;;;7.40;99.90;;;;;;5114011;28;20039;-81
2021/11/18 03:16:31;;;;;;;0.10;0.10;;;7.40;99.90;;;;;;5147971;28;20074;-82
2021/11/18 03:18:58;;;;;;;0.10;0.10;;;7.40;99.90;;;;;;5113982;28;20043;-81
2021/11/18 03:21:27;;;;;;;0.10;0.10;;;7.40;99.90;;;;;;5114429;28;20040;-81
2021/11/18 03:23:55;;;;;;;0.10;0.10;;;7.50;99.90;;;;;;5131038;28;20089;-81
2021/11/18 03:26:26;;;;;;;0.10;0.10;;;7.50;99.90;;;;;;5130523;28;20476;-82
2021/11/18 03:28:52;;;;;;;0.10;0.10;;;7.60;99.90;;;;;;5147904;28;20039;-81
2021/11/18 03:31:20;;;;;;;0.10;0.10;;;7.60;99.90;;;;;;5097113;28;20400;-81
2021/11/18 03:33:53;;;;;;;0.10;0.10;;;7.50;99.90;;;;;;5130607;28;20035;-81
2021/11/18 03:36:23;;;;;;;0.10;0.10;;;7.60;99.90;;;;;;5147404;28;20039;-81
2021/11/18 03:38:51;;;;;;;0.10;0.10;;;7.60;99.90;;;;;;5147654;28;20039;-82
2021/11/18 03:41:19;;;;;;;0.00;0.00;;;7.60;99.90;;;;;;5113278;28;20064;-81
2021/11/18 03:43:53;;;;;;;0.10;0.10;;;7.60;99.90;;;;;;5130388;28;20043;-82
2021/11/18 03:46:27;;;;;;;0.10;0.10;;;7.70;99.90;;;;;;5130067;28;20035;-81
2021/11/18 03:48:55;;;;;;;0.00;0.00;;;7.60;99.90;;;;;;5130594;28;20404;-82
2021/11/18 03:51:23;;;;;;;0.10;0.10;;;7.60;99.90;;;;;;5096580;28;20063;-82
2021/11/18 03:53:49;;;;;;;0.00;0.00;;;7.60;99.90;;;;;;5113587;28;20031;-82
2021/11/18 03:56:20;;;;;;;0.08;0.08;;;7.60;99.90;;;;;;5112846;28;20460;-82
2021/11/18 03:58:47;;;;;;;0.00;0.00;;;7.60;99.90;;;;;;5130489;28;20043;-82
2021/11/18 04:01:15;;;;;;;0.10;0.10;;;7.60;99.90;;;;;;5146956;28;20042;-81
2021/11/18 04:03:42;;;;;;;0.10;0.10;;;7.60;99.90;;;;;;5129977;28;20062;-82
2021/11/18 04:06:09;;;;;;;0.10;0.10;;;7.60;99.90;;;;;;5129671;28;20050;-82
2021/11/18 04:08:36;;;;;;;0.10;0.10;;;7.50;99.90;;;;;;5113394;28;20032;-82
2021/11/18 04:11:03;;;;;;;0.05;0.05;;;7.50;99.90;;;;;;5129912;28;20395;-82
2021/11/18 04:13:30;;;;;;;0.10;0.10;;;7.50;99.90;;;;;;5130328;28;20415;-82
2021/11/18 04:15:57;;;;;;;0.00;0.00;;;7.50;99.90;;;;;;5113442;28;20039;-82
2021/11/18 04:18:24;;;;;;;0.10;0.10;;;7.50;99.90;;;;;;5096166;28;20403;-82
2021/11/18 04:20:52;;;;;;;0.10;0.10;;;7.50;99.90;;;;;;5130033;28;20165;-82
2021/11/18 04:23:22;;;;;;;0.10;0.10;;;7.50;99.90;;;;;;5146223;28;20035;-82
2021/11/18 04:25:50;;;;;;;0.00;0.00;;;7.60;99.90;;;;;;5113553;28;20041;-82
2021/11/18 04:28:18;;;;;;;0.00;0.00;;;7.50;99.90;;;;;;5146389;28;20040;-81
2021/11/18 04:30:48;;;;;;;0.00;0.00;;;7.50;99.90;;;;;;5129844;28;20510;-81
2021/11/18 04:33:14;;;;;;;0.00;0.00;;;7.50;99.90;;;;;;5129910;28;20047;-82
2021/11/18 04:35:42;;;;;;;0.45;0.30;;;7.50;99.90;;;;;;5096199;28;20448;-82
2021/11/18 04:38:09;;;;;;;0.10;0.10;;;7.50;99.90;;;;;;5129476;28;20043;-81
2021/11/18 04:40:36;;;;;;;0.10;0.10;;;7.60;99.90;;;;;;5112951;28;20036;-83
2021/11/18 04:43:05;;;;;;;0.10;0.10;;;7.50;99.90;;;;;;5112616;28;20495;-81
2021/11/18 04:45:33;;;;;;;0.10;0.10;;;7.60;99.90;;;;;;5129609;28;20487;-80
2021/11/18 04:48:00;;;;;;;0.00;0.00;;;7.60;99.90;;;;;;5129819;28;20088;-81
2021/11/18 04:50:27;;;;;;;0.00;0.00;;;7.60;99.90;;;;;;5146340;28;20399;-81
2021/11/18 04:52:55;;;;;;;0.10;0.10;;;7.50;99.90;;;;;;5129733;28;20524;-82
2021/11/18 04:55:25;;;;;;;0.10;0.10;;;7.60;99.90;;;;;;5129374;28;20047;-81
2021/11/18 04:57:52;;;;;;;0.10;0.10;;;7.60;99.90;;;;;;5146377;28;20070;-82
2021/11/18 05:00:29;;;;;;;0.03;0.03;;;7.60;99.90;;;;;;5146268;28;20036;-82
2021/11/18 05:02:56;;;;;;;0.10;0.10;;;7.60;99.90;;;;;;5129607;28;20043;-82
2021/11/18 05:05:24;;;;;;;0.10;0.10;;;7.70;99.90;;;;;;5128555;28;20059;-82
2021/11/18 05:07:51;;;;;;;0.20;0.20;;;7.60;99.90;;;;;;5096297;28;20249;-81
2021/11/18 05:10:20;;;;;;;0.08;0.08;;;7.60;99.90;;;;;;5129283;28;20040;-82
2021/11/18 05:12:47;;;;;;;0.03;0.03;;;7.60;99.90;;;;;;5146210;28;20521;-82
2021/11/18 05:15:17;;;;;;;0.10;0.10;;;7.70;99.90;;;;;;5112428;28;20075;-83
2021/11/18 05:17:47;;;;;;;0.10;0.10;;;7.70;99.90;;;;;;5129279;28;20032;-81
2021/11/18 05:20:17;;;;;;;0.10;0.10;;;7.70;99.90;;;;;;5129494;28;20047;-81
2021/11/18 05:22:45;;;;;;;0.10;0.10;;;7.70;99.90;;;;;;5129257;28;20122;-81
2021/11/18 05:25:12;;;;;;;0.10;0.10;;;7.70;99.90;;;;;;5129036;28;20601;-82
2021/11/18 05:27:39;;;;;;;0.08;0.08;;;7.70;99.90;;;;;;5095777;28;20031;-81
2021/11/18 05:30:10;;;;;;;0.10;0.10;;;7.60;99.90;;;;;;5129389;28;20036;-81
2021/11/18 05:32:36;;;;;;;0.10;0.10;;;7.70;99.90;;;;;;5129197;28;20104;-82
2021/11/18 05:35:05;;;;;;;0.08;0.08;;;7.70;99.90;;;;;;5113907;28;20044;-82
2021/11/18 05:37:31;;;;;;;0.10;0.10;;;7.70;99.90;;;;;;5149954;28;20059;-82
2021/11/18 05:39:58;;;;;;;0.10;0.10;;;7.70;99.90;;;;;;5116359;28;20496;-82
2021/11/18 05:42:25;;;;;;;0.05;0.05;;;7.70;99.90;;;;;;5115979;28;20396;-82
2021/11/18 05:44:52;;;;;;;0.05;0.05;;;7.70;99.90;;;;;;5149684;28;20043;-82
2021/11/18 05:47:19;;;;;;;0.10;0.10;;;7.70;99.90;;;;;;5132615;28;20042;-81
2021/11/18 05:49:46;;;;;;;0.00;0.00;;;7.80;99.90;;;;;;5132955;28;20031;-82
2021/11/18 05:52:14;;;;;;;0.00;0.00;;;7.70;99.90;;;;;;5115311;28;20484;-82
2021/11/18 05:54:41;;;;;;;0.10;0.10;;;7.80;99.90;;;;;;5132464;28;20123;-81
2021/11/18 05:57:08;;;;;;;0.43;0.30;;;7.80;99.90;;;;;;5132282;28;20194;-82
2021/11/18 05:59:35;;;;;;;0.10;0.10;;;7.80;99.90;;;;;;5132058;28;20043;-82
2021/11/18 06:02:01;;;;;;;0.10;0.10;;;8.00;99.90;;;;;;5098806;28;20086;-81
2021/11/18 06:04:29;;;;;;;0.10;0.10;;;7.80;99.90;;;;;;5114696;28;20059;-81
2021/11/18 06:06:56;;;;;;;0.10;0.10;;;7.80;99.90;;;;;;5115269;28;20050;-82
2021/11/18 06:09:23;;;;;;;0.10;0.10;;;7.80;99.90;;;;;;5114960;28;20032;-81
2021/11/18 06:11:49;;;;;;;0.00;0.00;;;7.90;99.90;;;;;;5115410;28;20096;-81
2021/11/18 06:14:16;;;;;;;0.03;0.03;;;7.90;99.90;;;;;;5115094;28;20034;-82
2021/11/18 06:16:46;;;;;;;0.00;0.00;;;7.90;99.90;;;;;;5115712;28;20131;-82
2021/11/18 06:19:12;;;;;;;0.00;0.00;;;8.50;99.90;;;;;;5098929;28;20039;-81
2021/11/18 06:21:42;;;;;;;0.00;0.00;;;7.80;99.90;;;;;;5131812;28;20043;-81
2021/11/18 06:24:11;;;;;;;0.10;0.10;;;7.90;99.90;;;;;;5132305;28;20092;-81
2021/11/18 06:26:38;;;;;;;0.10;0.10;;;7.90;99.90;;;;;;5131642;28;20108;-82
2021/11/18 06:29:05;;;;;;;0.00;0.00;;;7.90;99.90;;;;;;5115213;28;20044;-82
2021/11/18 06:31:32;;;;;;;0.10;0.10;;;7.90;99.90;;;;;;5115091;28;20050;-82
2021/11/18 06:34:00;;;;;;;0.28;0.28;;;8.00;99.90;;;;;;5115193;28;20040;-82
2021/11/18 06:36:27;;;;;;;0.10;0.10;;;8.00;99.90;;;;;;5115437;28;20122;-82
2021/11/18 06:38:54;;;;;;;0.10;0.10;;;8.00;99.90;;;;;;5115476;28;20112;-81
2021/11/18 06:41:23;;;;;;;0.10;0.10;;;8.00;99.90;;;;;;5115670;28;20046;-81
2021/11/18 06:43:50;;;;;;;0.10;0.10;;;7.90;99.90;;;;;;5149216;28;20678;-82
2021/11/18 06:46:17;;;;;;;0.10;0.10;;;7.90;99.90;;;;;;5115916;28;20130;-82
2021/11/18 06:48:45;;;;;;;0.10;0.10;;;8.00;99.90;;;;;;5149842;28;20039;-81
2021/11/18 06:51:20;;;;;;;0.10;0.10;;;8.00;99.90;;;;;;5116954;28;20039;-81
2021/11/18 06:53:48;;;;;;;0.10;0.10;;;8.00;99.90;;;;;;5149451;28;20079;-81
2021/11/18 06:56:16;;;;;;;0.00;0.00;;;8.00;99.90;;;;;;5131514;28;20480;-81
2021/11/18 06:58:43;;;;;;;0.10;0.10;;;8.00;99.90;;;;;;5113835;28;20044;-81
2021/11/18 07:01:11;;;;;;;0.10;0.10;;;8.10;99.90;;;;;;5114111;28;20035;-82
2021/11/18 07:03:39;;;;;;;0.10;0.10;;;8.10;99.90;;;;;;5130307;28;20104;-81
2021/11/18 07:06:08;;;;;;;0.03;0.03;;;8.10;99.90;;;;;;5098034;28;20484;-81
2021/11/18 07:08:35;;;;;;;0.10;0.10;;;8.10;99.90;;;;;;5130554;28;20075;-81
2021/11/18 07:11:02;;;;;;;0.10;0.10;;;8.10;99.90;;;;;;5148388;28;20118;-81
2021/11/18 07:13:32;;;;;;;0.10;0.10;;;8.60;99.90;;;;;;5130397;28;20597;-80
2021/11/18 07:16:04;;;;;;;0.05;0.05;;;8.10;99.90;;;;;;5114761;28;20126;-81
2021/11/18 07:18:31;;;;;;;0.00;0.00;;;8.10;99.90;;;;;;5114617;28;20035;-82
2021/11/18 07:20:59;;;;;;;0.10;0.10;;;8.10;99.90;;;;;;5114295;28;20040;-81
2021/11/18 07:23:26;;;;;;;0.10;0.10;;;8.20;99.90;;;;;;5130777;28;20044;-81
2021/11/18 07:25:56;;;;;;;0.10;0.10;;;8.20;99.90;;;;;;5113937;28;20515;-81
2021/11/18 07:28:25;;;;;;;0.10;0.10;;;8.10;99.90;;;;;;5130747;28;20040;-82
2021/11/18 07:30:54;;;;;;;0.10;0.10;;;8.10;99.90;;;;;;5114226;28;20105;-82
2021/11/18 07:33:22;;;;;;;0.00;0.00;;;8.20;99.90;;;;;;5130897;28;20046;-82
2021/11/18 07:35:50;;;;;;;0.10;0.10;;;8.10;99.90;;;;;;5130665;28;20046;-82
2021/11/18 07:38:17;;;;;;;0.10;0.10;;;8.10;99.90;;;;;;5131178;28;20043;-82
2021/11/18 07:40:46;;;;;;;0.10;0.10;;;8.20;99.90;;;;;;5113491;28;20107;-82
2021/11/18 07:43:20;;;;;;;0.20;0.20;;;8.20;99.90;;;;;;5133947;28;20392;-82
2021/11/18 07:45:48;;;;;;;0.00;0.00;;;8.20;99.90;;;;;;5130436;28;20481;-82
2021/11/18 07:48:15;;;;;;;0.00;0.00;;;8.20;99.90;;;;;;5130798;28;20032;-82
2021/11/18 07:50:43;;;;;;;0.05;0.05;;;8.30;99.90;;;;;;5113324;28;20392;-82
2021/11/18 07:53:10;;;;;;;0.10;0.10;;;8.20;99.90;;;;;;5113521;28;20380;-82
2021/11/18 07:55:37;;;;;;;0.00;0.00;;;8.20;99.90;;;;;;5130262;28;20043;-82
2021/11/18 07:58:04;;;;;;;0.10;0.10;;;8.20;99.90;;;;;;5113192;28;20122;-82
2021/11/18 08:00:30;;;;;;;0.00;0.00;;;8.20;99.90;;;;;;5097057;28;20092;-81
2021/11/18 08:02:57;;;;;;;0.05;0.05;;;8.30;99.90;;;;;;5113360;28;20503;-82
2021/11/18 08:05:24;;;;;;;0.10;0.10;;;8.50;99.90;;;;;;5130051;28;20043;-82
2021/11/18 08:07:51;;;;;;;0.10;0.10;;;8.30;99.90;;;;;;5113325;28;20077;-82
2021/11/18 08:10:17;;;;;;;0.10;0.10;;;8.30;99.90;;;;;;5113207;28;20039;-81
2021/11/18 08:12:44;;;;;;;0.10;0.10;;;8.30;99.90;;;;;;5113314;28;20031;-81
2021/11/18 08:15:14;;;;;;;0.10;0.10;;;8.40;99.90;;;;;;5096867;28;20045;-81
2021/11/18 08:17:42;;;;;;;0.10;0.10;;;8.40;99.90;;;;;;5130166;28;20046;-81
2021/11/18 08:20:09;;;;;;;0.10;0.10;;;8.40;99.90;;;;;;5130554;28;20130;-81
2021/11/18 08:22:36;;;;;;;0.00;0.00;;;8.40;99.90;;;;;;5130005;28;20042;-81
2021/11/18 08:25:05;;;;;;;0.00;0.00;;;8.40;99.90;;;;;;5129940;28;20046;-82
2021/11/18 08:27:32;;;;;;;0.05;0.05;;;8.40;99.90;;;;;;5112831;28;20047;-81
2021/11/18 08:30:00;;;;;;;0.00;0.00;;;8.40;99.90;;;;;;5113623;28;20039;-82
2021/11/18 08:32:27;;;;;;;0.10;0.10;;;8.50;99.90;;;;;;5147127;28;20040;-81
2021/11/18 08:34:54;;;;;;;0.10;0.10;;;8.50;99.90;;;;;;5096741;28;20046;-81
2021/11/18 08:37:21;;;;;;;0.10;0.10;;;8.50;99.90;;;;;;5113141;28;20043;-82
2021/11/18 08:39:48;;;;;;;0.88;0.30;;;8.60;99.90;;;;;;5112991;28;20067;-82
2021/11/18 08:42:19;;;;;;;0.10;0.10;;;8.60;99.90;;;;;;5113379;28;20043;-82
2021/11/18 08:44:46;;;;;;;0.00;0.00;;;8.60;99.90;;;;;;5129599;28;20043;-82
2021/11/18 08:47:14;;;;;;;0.10;0.10;;;8.70;99.90;;;;;;5113369;28;20530;-82
2021/11/18 08:49:42;;;;;;;0.10;0.10;;;8.70;99.90;;;;;;5129892;28;20113;-82
2021/11/18 08:52:13;;;;;;;0.10;0.10;;;8.80;99.90;;;;;;5130225;28;20115;-82
2021/11/18 08:54:44;;;;;;;0.10;0.10;;;8.80;99.90;;;;;;5129466;28;20036;-82
2021/11/18 08:57:12;;;;;;;0.10;0.10;;;8.90;99.90;;;;;;5129809;28;20064;-82
2021/11/18 08:59:40;;;;;;;0.00;0.00;;;8.90;99.90;;;;;;5129182;28;20031;-82
2021/11/18 09:02:17;;;;;;;0.00;0.00;;;9.00;99.90;;;;;;5146495;28;20040;-82
2021/11/18 09:04:43;;;;;;;0.10;0.10;;;9.00;99.90;;;;;;5128885;28;20052;-82
2021/11/18 09:07:10;;;;;;;0.10;0.10;;;9.10;99.90;;;;;;5096326;28;20051;-82
2021/11/18 09:09:37;;;;;;;0.00;0.00;;;9.10;99.90;;;;;;5147472;28;20088;-82
2021/11/18 09:12:06;;;;;;;0.00;0.00;;;9.20;99.90;;;;;;5134191;28;20042;-82
2021/11/18 09:14:34;;;;;;;0.20;0.20;;;9.20;99.90;;;;;;5118053;28;20050;-81
2021/11/18 09:17:01;;;;;;;0.10;0.10;;;9.20;99.90;;;;;;5133320;28;20039;-82
2021/11/18 09:19:31;;;;;;;0.00;0.00;;;9.20;99.90;;;;;;5133581;28;20035;-81
2021/11/18 09:22:02;;;;;;;0.00;0.00;;;9.30;99.90;;;;;;5133185;28;20043;-81
2021/11/18 09:24:38;;;;;;;0.00;0.00;;;9.30;99.90;;;;;;5133821;28;20075;-81
2021/11/18 09:27:30;;;;;;;0.00;0.00;;;9.30;99.90;;;;;;5133703;28;20043;-82
2021/11/18 09:29:57;;;;;;;0.00;0.00;;;9.30;99.90;;;;;;5127594;28;20043;-82
2021/11/18 09:32:28;;;;;;;0.03;0.03;;;9.40;99.90;;;;;;5116452;28;20043;-82
2021/11/18 09:35:08;;;;;;;0.10;0.10;;;9.40;99.90;;;;;;5117304;28;20031;-82
2021/11/18 09:37:35;;;;;;;0.00;0.00;;;9.40;99.90;;;;;;5133062;28;20040;-82
2021/11/18 09:40:06;;;;;;;0.25;0.25;;;9.40;99.90;;;;;;5133132;28;20134;-81
2021/11/18 09:43:00;;;;;;;0.00;0.00;;;9.40;99.90;;;;;;5150122;28;20500;-82
2021/11/18 09:45:28;;;;;;;0.00;0.00;;;9.40;99.90;;;;;;5150539;28;20126;-82
2021/11/18 09:48:25;;;;;;;0.00;0.00;;;9.30;99.90;;;;;;5132965;28;20043;-82
2021/11/18 09:50:54;;;;;;;0.10;0.10;;;9.40;99.90;;;;;;5133119;28;20040;-82
2021/11/18 09:53:32;;;;;;;0.00;0.00;;;9.40;99.90;;;;;;5132907;28;20499;-82
2021/11/18 09:56:30;;;;;;;0.05;0.05;;;9.40;99.90;;;;;;5132776;28;20418;-82
2021/11/18 09:59:33;;;;;;;0.00;0.00;;;9.50;99.90;;;;;;5149616;28;20035;-82
2021/11/18 10:02:18;;;;;;;0.00;0.00;;;9.50;99.90;;;;;;5132226;28;20039;-82
2021/11/18 10:04:54;;;;;;;0.00;0.00;;;9.50;99.90;;;;;;5132411;28;20126;-82
2021/11/18 10:07:24;;;;;;;;;;;9.60;99.90;;;;;;5133080;28;20428;-82
2021/11/18 10:10:11;;;;;;;0.35;0.25;;;9.60;99.90;;;;;;5133212;28;19962;-81
2021/11/18 10:13:13;;;;;;;0.00;0.00;;;9.70;99.90;;;;;;5133259;28;20078;-81
2021/11/18 10:15:45;;;;;;;0.00;0.00;;;9.70;99.90;;;;;;5149450;28;20047;-81
2021/11/18 10:18:25;;;;;;;0.10;0.10;;;9.80;99.90;;;;;;5132527;28;20079;-81
2021/11/18 10:20:59;;;;;;;0.00;0.00;;;9.80;99.90;;;;;;5131181;28;20066;-82
2021/11/18 10:23:27;;;;;;;0.00;0.00;;;9.80;99.90;;;;;;5132066;28;20035;-81
2021/11/18 10:26:02;;;;;;;0.00;0.00;;;9.90;99.90;;;;;;5132096;28;20040;-82
2021/11/18 10:28:35;;;;;;;;;;;10.00;99.90;;;;;;5132950;28;20097;-82
2021/11/18 10:31:20;;;;;;;0.00;0.00;;;10.00;99.90;;;;;;5149161;28;19926;-82
2021/11/18 10:33:53;;;;;;;0.03;0.03;;;10.10;99.90;;;;;;5132048;28;20442;-82
2021/11/18 10:36:58;;;;;;;0.15;0.13;;;10.20;99.90;;;;;;5132376;28;20047;-81
2021/11/18 10:40:06;;;;;;;0.00;0.00;;;10.30;99.90;;;;;;5093990;28;20044;-81
2021/11/18 10:42:36;;;;;;;0.00;0.00;;;10.40;99.90;;;;;;5093591;28;20440;-82
2021/11/18 10:45:29;;;;;;;0.10;0.10;;;10.50;99.90;;;;;;5093410;28;20044;-82
2021/11/18 10:47:59;;;;;;;0.00;0.00;;;10.60;99.90;;;;;;5118622;28;20046;-82
2021/11/18 10:50:42;;;;;;;0.00;0.00;;;10.60;99.90;;;;;;5131860;28;20095;-82
2021/11/18 10:53:54;;;;;;;0.00;0.00;;;10.60;99.90;;;;;;5133375;28;20040;-82
2021/11/18 10:56:30;;;;;;;0.00;0.00;;;10.70;99.90;;;;;;5121598;28;20059;-82
2021/11/18 10:59:11;;;;;;;0.00;0.00;;;10.70;99.90;;;;;;5131479;28;20047;-82
2021/11/18 11:01:44;;;;;;;0.00;0.00;;;10.70;99.90;;;;;;5131322;28;20032;-82
2021/11/18 11:04:31;;;;;;;0.00;0.00;;;10.80;99.90;;;;;;5131120;28;20056;-82
2021/11/18 11:06:57;;;;;;;0.00;0.00;;;10.70;99.90;;;;;;5131300;28;20052;-82
2021/11/18 11:09:43;;;;;;;0.00;0.00;;;10.80;99.90;;;;;;5114673;28;20188;-82
2021/11/18 11:12:28;;;;;;;0.00;0.00;;;10.80;99.90;;;;;;5131359;28;20116;-82
2021/11/18 11:15:16;;;;;;;0.00;0.00;;;10.80;99.90;;;;;;5131508;28;20044;-81
2021/11/18 11:18:01;;;;;;;0.22;0.20;;;10.80;99.90;;;;;;5131798;28;20047;-82
2021/11/18 11:20:33;;;;;;;0.00;0.00;;;10.90;99.90;;;;;;5148379;28;20108;-81
2021/11/18 11:23:07;;;;;;;0.00;0.00;;;10.90;99.90;;;;;;5148154;28;20032;-82
2021/11/18 11:26:07;;;;;;;0.40;0.20;;;10.90;99.90;;;;;;5148395;28;20042;-81
2021/11/18 11:28:58;;;;;;;0.00;0.00;;;10.90;99.90;;;;;;5148174;28;20569;-81
2021/11/18 11:32:06;;;;;;;0.00;0.00;;;11.00;99.90;;;;;;5131042;28;20035;-82
2021/11/18 11:34:44;;;;;;;0.00;0.00;;;11.00;99.90;;;;;;5119631;28;20470;-82
2021/11/18 11:37:29;;;;;;;0.00;0.00;;;11.00;99.90;;;;;;5130940;28;20075;-81
2021/11/18 11:40:03;;;;;;;0.00;0.00;;;11.00;99.90;;;;;;5131196;28;20554;-81
2021/11/18 11:42:55;;;;;;;0.00;0.00;;;11.10;99.90;;;;;;5130459;28;20473;-81
2021/11/18 11:45:54;;;;;;;0.00;0.00;;;11.10;99.90;;;;;;5130722;28;20061;-81
2021/11/18 11:49:05;;;;;;;0.00;0.00;;;11.10;99.90;;;;;;5130709;28;20035;-81
2021/11/18 11:51:59;;;;;;;0.00;0.00;;;11.10;99.90;;;;;;5121696;28;20048;-81
2021/11/18 11:54:31;;;;;;;0.00;0.00;;;11.10;99.90;;;;;;5147647;28;20848;-81
2021/11/18 11:57:37;;;;;;;0.00;0.00;;;11.10;99.90;;;;;;5130301;28;20043;-81
2021/11/18 12:00:06;;;;;;;0.00;0.00;;;11.10;99.90;;;;;;5114615;28;20055;-81
2021/11/18 12:02:43;;;;;;;0.00;0.00;;;11.10;99.90;;;;;;5130076;28;20403;-81
2021/11/18 12:05:27;;;;;;;0.00;0.00;;;11.10;99.90;;;;;;5130209;28;20087;-82
2021/11/18 12:08:27;;;;;;;0.00;0.00;;;11.00;99.90;;;;;;5130817;28;20697;-81
2021/11/18 12:11:08;;;;;;;0.00;0.00;;;11.00;99.90;;;;;;5130758;28;20079;-82
2021/11/18 12:13:53;;;;;;;0.10;0.10;;;11.00;99.90;;;;;;5130420;28;20043;-82
2021/11/18 12:16:20;;;;;;;0.00;0.00;;;11.00;99.90;;;;;;5130043;28;20040;-82
2021/11/18 12:18:54;;;;;;;0.00;0.00;;;11.00;99.90;;;;;;5130243;28;20047;-82
2021/11/18 12:21:22;;;;;;;0.00;0.00;;;11.00;99.90;;;;;;5129932;28;20046;-82
2021/11/18 12:24:09;;;;;;;0.00;0.00;;;11.00;99.90;;;;;;5130332;28;20614;-82
2021/11/18 12:27:03;;;;;;;0.00;0.00;;;11.00;99.90;;;;;;5129981;28;20428;-82
2021/11/18 12:29:32;;;;;;;0.00;0.00;;;11.00;99.90;;;;;;5130234;28;20043;-82
2021/11/18 12:32:08;;;;;;;0.00;0.00;;;11.00;99.90;;;;;;5130376;28;20065;-81
2021/11/18 12:35:00;;;;;;;0.00;0.00;;;11.00;99.90;;;;;;5147289;28;20031;-82
2021/11/18 12:37:44;;;;;;;0.00;0.00;;;11.00;99.90;;;;;;5129950;28;20549;-82
2021/11/18 12:40:20;;;;;;;0.00;0.00;;;11.00;99.90;;;;;;5130270;28;20032;-82
2021/11/18 12:42:50;;;;;;;;;;;10.90;99.90;;;;;;5130541;28;20067;-81
2021/11/18 12:45:49;;;;;;;0.00;0.00;;;10.90;99.90;;;;;;5148753;28;19919;-81
2021/11/18 12:48:44;;;;;;;0.10;0.10;;;10.90;99.90;;;;;;5150935;28;20380;-81
2021/11/18 12:51:50;;;;;;;0.00;0.00;;;10.90;99.90;;;;;;5134248;28;20035;-82
2021/11/18 12:54:20;;;;;;;0.00;0.00;;;10.90;99.90;;;;;;5129591;28;20500;-82
2021/11/18 12:56:53;;;;;;;0.00;0.00;;;10.90;99.90;;;;;;5133921;28;20048;-82
2021/11/18 12:59:44;;;;;;;0.60;0.60;;;10.90;99.90;;;;;;5134098;28;20047;-82
2021/11/18 13:02:27;;;;;;;0.00;0.00;;;10.90;99.90;;;;;;5130717;28;20131;-81
2021/11/18 13:04:58;;;;;;;0.00;0.00;;;10.90;99.90;;;;;;5133556;28;20091;-81
2021/11/18 13:07:50;;;;;;;0.00;0.00;;;10.90;99.90;;;;;;5116605;28;20082;-81
2021/11/18 13:10:23;;;;;;;0.00;0.00;;;10.90;99.90;;;;;;5133334;28;20043;-81
2021/11/18 13:12:58;;;;;;;0.00;0.00;;;10.90;99.90;;;;;;5150595;28;20047;-81
2021/11/18 13:15:45;;;;;;;0.00;0.00;;;10.90;99.90;;;;;;5150496;28;20452;-82
2021/11/18 13:18:28;;;;;;;0.10;0.10;;;10.90;99.90;;;;;;5129272;28;20051;-82
2021/11/18 13:21:00;;;;;;;0.00;0.00;;;10.90;99.90;;;;;;5133488;28;20043;-82